Time;durP1;ratioP1;P1;durP2;ratioP2;P2;SDS_P1;SDS_P2;PMS_P1;PMS_P2;Temp;Humidity;BMP_temperature;BMP_pressure;BME280_temperature;BME280_humidity;BME280_pressure;Samples;Min_cycle;Max_cycle;Signal;HPM_P1;HPM_P2
2021/07/29 00:01:42;;;;;;;0.80;0.30;;;;;;;17.63;100.00;99961.44;4968241;28;20517;-54
2021/07/29 00:04:09;;;;;;;0.40;0.23;;;;;;;17.65;100.00;99952.31;5001504;28;20454;-54
2021/07/29 00:06:36;;;;;;;0.60;0.50;;;;;;;17.73;100.00;99949.19;4993407;28;20477;-54
2021/07/29 00:09:03;;;;;;;0.40;0.20;;;;;;;17.82;100.00;99943.22;4993675;28;20871;-55
2021/07/29 00:11:30;;;;;;;11.67;0.93;;;;;;;17.86;100.00;99939.38;4993674;28;20516;-54
2021/07/29 00:14:01;;;;;;;0.40;0.20;;;;;;;18.01;100.00;99935.69;4993570;28;20453;-54
2021/07/29 00:16:32;;;;;;;0.40;0.20;;;;;;;18.04;100.00;99932.78;4993365;28;20469;-54
2021/07/29 00:19:05;;;;;;;0.40;0.20;;;;;;;18.22;100.00;99938.78;4993461;28;20449;-54
2021/07/29 00:21:32;;;;;;;0.40;0.20;;;;;;;18.32;98.19;99936.38;4993665;28;20456;-54
2021/07/29 00:24:00;;;;;;;2.63;1.80;;;;;;;18.29;97.33;99926.66;4993406;28;20473;-54
2021/07/29 00:26:27;;;;;;;0.50;0.50;;;;;;;18.40;96.59;99933.19;4993207;28;20516;-54
2021/07/29 00:28:54;;;;;;;0.40;0.20;;;;;;;18.50;96.06;99932.47;5007765;28;20450;-54
2021/07/29 00:31:28;;;;;;;0.40;0.20;;;;;;;18.46;96.31;99922.84;4993280;28;20454;-54
2021/07/29 00:33:55;;;;;;;1.03;1.03;;;;;;;18.55;95.97;99935.69;4992673;28;20820;-54
2021/07/29 00:36:22;;;;;;;1.23;1.13;;;;;;;18.80;95.39;99940.34;5007500;23;20477;-53
2021/07/29 00:38:50;;;;;;;0.40;0.20;;;;;;;18.65;94.50;99933.28;4986145;28;20493;-53
2021/07/29 00:41:16;;;;;;;0.40;0.30;;;;;;;18.80;93.85;99931.38;4985724;28;20874;-52
2021/07/29 00:43:44;;;;;;;0.40;0.20;;;;;;;18.91;92.15;99931.50;4979844;28;20454;-52
2021/07/29 00:46:13;;;;;;;0.40;0.20;;;;;;;18.98;91.71;99930.13;4980791;28;20513;-53
2021/07/29 00:48:40;;;;;;;0.40;0.20;;;;;;;18.98;91.48;99924.72;4973682;28;20457;-54
2021/07/29 00:51:07;;;;;;;0.40;0.20;;;;;;;19.13;90.29;99915.56;4960547;28;20459;-55
2021/07/29 00:53:34;;;;;;;0.40;0.20;;;;;;;18.93;91.11;99921.50;4973209;28;20875;-54
2021/07/29 00:56:01;;;;;;;0.40;0.33;;;;;;;19.11;90.88;99916.66;4970588;28;20467;-55
2021/07/29 00:58:28;;;;;;;0.73;0.73;;;;;;;19.05;90.35;99909.88;4973264;28;20576;-55
2021/07/29 01:00:54;;;;;;;0.40;0.30;;;;;;;18.94;91.77;99909.75;4972250;28;20505;-55
2021/07/29 01:03:21;;;;;;;0.40;0.20;;;;;;;19.10;90.84;99907.72;4972915;28;20450;-54
2021/07/29 01:05:48;;;;;;;0.97;0.97;;;;;;;18.98;91.59;99905.88;4967232;28;20509;-55
2021/07/29 01:08:14;;;;;;;0.93;0.93;;;;;;;19.08;90.50;99904.28;4973882;28;20836;-55
2021/07/29 01:10:41;;;;;;;0.40;0.20;;;;;;;19.10;90.47;99910.41;4973539;28;20812;-55
2021/07/29 01:13:08;;;;;;;0.40;0.20;;;;;;;18.92;90.94;99907.16;4973403;28;20500;-55
2021/07/29 01:15:34;;;;;;;0.40;0.20;;;;;;;18.89;91.89;99906.50;4973579;28;20458;-54
2021/07/29 01:18:01;;;;;;;0.60;0.60;;;;;;;18.98;90.83;99896.94;4973138;28;21074;-54
2021/07/29 01:20:30;;;;;;;0.50;0.30;;;;;;;18.94;91.01;99894.44;4973064;28;20454;-55
2021/07/29 01:22:57;;;;;;;0.40;0.20;;;;;;;18.87;91.87;99895.84;4973199;28;20454;-54
2021/07/29 01:25:23;;;;;;;0.40;0.20;;;;;;;18.83;91.50;99888.94;4973130;28;20456;-55
2021/07/29 01:27:50;;;;;;;0.80;0.80;;;;;;;18.83;91.87;99898.84;4973176;28;20441;-54
2021/07/29 01:30:17;;;;;;;0.40;0.20;;;;;;;18.95;90.84;99887.22;4971911;28;20800;-54
2021/07/29 01:32:43;;;;;;;0.40;0.30;;;;;;;18.92;90.60;99890.16;4973176;28;20446;-55
2021/07/29 01:35:11;;;;;;;0.40;0.20;;;;;;;19.06;90.17;99886.50;4971747;28;20461;-54
2021/07/29 01:37:42;;;;;;;0.40;0.20;;;;;;;19.05;90.27;99890.13;4973070;28;20564;-54
2021/07/29 01:40:10;;;;;;;0.40;0.20;;;;;;;19.08;89.68;99887.25;4973107;28;20450;-54
2021/07/29 01:42:37;;;;;;;0.40;0.20;;;;;;;19.31;88.80;99888.28;4975556;28;20505;-54
2021/07/29 01:45:04;;;;;;;0.83;0.80;;;;;;;18.93;89.74;99884.66;4976941;28;20451;-54
2021/07/29 01:47:30;;;;;;;0.50;0.40;;;;;;;19.05;89.94;99887.44;4976937;28;20473;-54
2021/07/29 01:49:58;;;;;;;0.40;0.30;;;;;;;18.98;89.92;99888.84;4976454;28;20442;-54
2021/07/29 01:52:24;;;;;;;0.40;0.20;;;;;;;18.86;90.43;99882.47;4976707;28;20454;-54
2021/07/29 01:54:51;;;;;;;0.40;0.20;;;;;;;18.93;90.91;99881.09;4976308;28;20429;-55
2021/07/29 01:57:18;;;;;;;0.40;0.20;;;;;;;18.80;91.24;99883.78;4973149;28;20478;-53
2021/07/29 01:59:44;;;;;;;0.40;0.20;;;;;;;18.77;91.79;99894.72;4976535;28;20450;-54
2021/07/29 02:02:11;;;;;;;0.40;0.20;;;;;;;18.81;92.37;99890.03;4976452;28;20450;-54
2021/07/29 02:04:38;;;;;;;0.40;0.20;;;;;;;18.76;92.42;99889.47;4969255;28;20465;-54
2021/07/29 02:07:04;;;;;;;0.40;0.20;;;;;;;18.67;92.87;99888.28;4976543;28;20528;-55
2021/07/29 02:09:31;;;;;;;0.50;0.50;;;;;;;18.80;92.44;99881.09;4976135;28;20520;-54
2021/07/29 02:11:59;;;;;;;0.40;0.20;;;;;;;18.71;92.80;99899.69;4976345;28;20458;-55
2021/07/29 02:14:28;;;;;;;0.40;0.30;;;;;;;18.71;92.50;99902.38;4976041;28;20990;-55
2021/07/29 02:16:56;;;;;;;0.40;0.20;;;;;;;18.51;93.52;99893.81;4976180;28;20470;-55
2021/07/29 02:19:23;;;;;;;1.13;1.13;;;;;;;18.44;94.02;99897.88;4976108;28;20493;-55
2021/07/29 02:21:50;;;;;;;0.40;0.20;;;;;;;18.43;94.53;99898.84;4976235;28;20454;-54
2021/07/29 02:24:16;;;;;;;0.40;0.20;;;;;;;18.42;94.78;99897.13;4975718;28;20944;-55
2021/07/29 02:26:43;;;;;;;0.40;0.30;;;;;;;18.40;95.19;99904.44;4975851;28;21003;-54
2021/07/29 02:29:10;;;;;;;0.40;0.30;;;;;;;18.19;96.89;99889.72;4976081;28;20520;-54
2021/07/29 02:31:37;;;;;;;0.40;0.20;;;;;;;18.16;97.67;99898.00;4976019;28;20461;-54
2021/07/29 02:34:04;;;;;;;0.50;0.40;;;;;;;17.94;98.46;99898.53;4975724;28;20974;-54
2021/07/29 02:36:31;;;;;;;0.40;0.20;;;;;;;17.97;99.62;99893.84;4975792;28;20479;-55
2021/07/29 02:38:57;;;;;;;0.40;0.20;;;;;;;18.05;98.45;99896.84;4975575;28;20544;-54
2021/07/29 02:41:24;;;;;;;0.40;0.20;;;;;;;17.90;98.01;99905.06;4975784;28;20858;-55
2021/07/29 02:43:50;;;;;;;0.93;0.93;;;;;;;17.46;100.00;99896.19;4975824;28;20863;-54
2021/07/29 02:46:17;;;;;;;0.40;0.20;;;;;;;17.46;100.00;99896.19;4975815;28;20985;-52
2021/07/29 02:48:44;;;;;;;0.40;0.30;;;;;;;17.48;100.00;99886.19;4976012;28;20451;-53
2021/07/29 02:51:11;;;;;;;0.40;0.30;;;;;;;17.25;100.00;99894.81;4975319;28;20446;-53
2021/07/29 02:53:37;;;;;;;0.40;0.20;;;;;;;17.19;100.00;99887.16;4975562;28;20450;-52
2021/07/29 02:56:05;;;;;;;0.40;0.20;;;;;;;17.07;100.00;99896.84;4972426;28;20459;-54
2021/07/29 02:58:32;;;;;;;0.40;0.20;;;;;;;17.05;100.00;99893.41;4975437;28;20498;-52
2021/07/29 03:00:59;;;;;;;1.33;1.23;;;;;;;17.15;100.00;99899.06;4975124;28;20455;-53
2021/07/29 03:03:26;;;;;;;0.40;0.20;;;;;;;16.90;100.00;99902.38;4973873;28;20465;-52
2021/07/29 03:05:53;;;;;;;0.40;0.20;;;;;;;16.74;100.00;99907.81;4969549;28;20458;-53
2021/07/29 03:08:19;;;;;;;0.40;0.20;;;;;;;16.83;100.00;99904.56;4975332;28;20474;-53
2021/07/29 03:10:47;;;;;;;0.40;0.20;;;;;;;17.08;100.00;99898.56;4975220;28;20586;-53
2021/07/29 03:13:15;;;;;;;0.40;0.20;;;;;;;17.26;100.00;99899.25;4975076;28;20936;-53
2021/07/29 03:15:42;;;;;;;0.40;0.20;;;;;;;17.34;100.00;99907.69;4975020;28;20454;-52
2021/07/29 03:18:08;;;;;;;0.40;0.20;;;;;;;17.38;99.55;99905.66;4974958;28;20549;-52
2021/07/29 03:20:35;;;;;;;0.40;0.20;;;;;;;17.58;98.40;99907.97;4973587;28;20916;-53
2021/07/29 03:23:02;;;;;;;0.40;0.20;;;;;;;17.48;98.66;99907.69;4975143;28;20505;-52
2021/07/29 03:25:28;;;;;;;1.07;1.07;;;;;;;17.61;97.21;99906.91;4974793;28;20525;-52
2021/07/29 03:27:55;;;;;;;0.40;0.20;;;;;;;17.56;97.48;99901.84;4974929;28;20470;-54
2021/07/29 03:30:22;;;;;;;0.40;0.20;;;;;;;17.49;97.81;99905.88;4974699;28;20450;-54
2021/07/29 03:32:48;;;;;;;0.40;0.30;;;;;;;17.50;97.41;99912.09;4974780;28;20938;-55
2021/07/29 03:35:15;;;;;;;0.40;0.20;;;;;;;17.63;97.01;99907.69;4973667;28;20509;-52
2021/07/29 03:37:42;;;;;;;0.40;0.20;;;;;;;17.63;97.45;99905.84;4974768;28;20600;-52
2021/07/29 03:40:09;;;;;;;5.70;1.33;;;;;;;17.72;96.19;99904.44;4974744;28;20458;-52
2021/07/29 03:42:36;;;;;;;0.40;0.20;;;;;;;17.69;96.32;99910.03;4974650;28;20458;-52
2021/07/29 03:45:03;;;;;;;0.40;0.20;;;;;;;17.47;97.75;99922.09;4974837;28;20458;-53
2021/07/29 03:47:30;;;;;;;0.40;0.20;;;;;;;17.55;96.96;99918.06;4974414;28;21001;-52
2021/07/29 03:49:57;;;;;;;0.40;0.20;;;;;;;17.55;97.33;99918.06;4973918;28;20447;-52
2021/07/29 03:52:24;;;;;;;0.40;0.30;;;;;;;17.44;97.85;99916.91;4974484;28;20951;-52
2021/07/29 03:54:52;;;;;;;0.40;0.20;;;;;;;17.47;97.80;99915.84;4974133;28;20458;-54
2021/07/29 03:57:23;;;;;;;0.40;0.20;;;;;;;17.51;97.78;99925.44;4971006;28;20898;-53
2021/07/29 03:59:50;;;;;;;0.97;0.47;;;;;;;17.74;97.22;99921.34;4974513;28;20978;-52
2021/07/29 04:02:17;;;;;;;0.40;0.20;;;;;;;17.58;97.38;99929.47;4974767;28;20951;-55
2021/07/29 04:04:44;;;;;;;0.40;0.20;;;;;;;17.76;96.34;99916.72;4966826;28;20792;-54
2021/07/29 04:07:11;;;;;;;0.40;0.30;;;;;;;17.70;96.34;99923.38;4974164;28;20521;-54
2021/07/29 04:09:38;;;;;;;0.80;0.60;;;;;;;17.76;96.51;99924.78;4974047;28;20501;-54
2021/07/29 04:12:05;;;;;;;2.50;2.30;;;;;;;17.61;97.21;99920.34;4974305;28;20454;-54
2021/07/29 04:14:32;;;;;;;3.90;0.77;;;;;;;17.67;97.19;99928.00;4973772;28;20490;-54
2021/07/29 04:16:59;;;;;;;0.40;0.20;;;;;;;17.66;97.28;99931.66;4974097;28;20470;-55
2021/07/29 04:19:30;;;;;;;0.40;0.20;;;;;;;17.64;97.60;99933.59;4973905;28;20501;-54
2021/07/29 04:21:56;;;;;;;3.30;0.77;;;;;;;17.54;97.64;99925.25;4974031;28;20513;-55
2021/07/29 04:24:23;;;;;;;0.40;0.20;;;;;;;17.72;97.61;99925.94;4974095;28;20454;-54
2021/07/29 04:26:49;;;;;;;0.40;0.20;;;;;;;17.74;96.71;99924.03;4973817;28;20528;-54
2021/07/29 04:29:16;;;;;;;0.90;0.70;;;;;;;17.86;97.30;99930.44;4973646;28;20450;-53
2021/07/29 04:31:43;;;;;;;0.40;0.20;;;;;;;17.87;96.94;99929.47;4973688;28;20451;-53
2021/07/29 04:34:09;;;;;;;0.40;0.20;;;;;;;17.98;96.59;99935.91;4973773;28;20476;-52
2021/07/29 04:36:39;;;;;;;0.60;0.60;;;;;;;18.10;96.08;99942.31;4973615;28;20486;-53
2021/07/29 04:39:07;;;;;;;1.33;0.90;;;;;;;17.76;97.34;99946.28;4973578;28;20497;-52
2021/07/29 04:41:37;;;;;;;0.40;0.20;;;;;;;17.96;96.90;99942.34;4973427;28;20455;-52
2021/07/29 04:44:04;;;;;;;0.40;0.30;;;;;;;18.02;96.42;99942.78;4973925;28;20454;-52
2021/07/29 04:46:31;;;;;;;0.50;0.30;;;;;;;18.00;96.42;99947.41;4972120;28;20471;-52
2021/07/29 04:48:58;;;;;;;0.40;0.20;;;;;;;18.01;95.66;99946.44;4973748;28;20446;-52
2021/07/29 04:51:25;;;;;;;0.40;0.20;;;;;;;18.15;95.48;99950.06;4960048;28;20455;-51
2021/07/29 04:53:51;;;;;;;0.70;0.67;;;;;;;18.09;95.47;99945.06;4973533;28;20503;-52
2021/07/29 04:56:18;;;;;;;0.40;0.20;;;;;;;18.34;94.25;99950.56;4970170;28;20455;-52
2021/07/29 04:58:45;;;;;;;0.40;0.30;;;;;;;18.27;95.09;99962.72;4973533;28;20489;-53
2021/07/29 05:01:11;;;;;;;0.40;0.20;;;;;;;18.29;94.66;99955.41;4973538;28;20513;-53
2021/07/29 05:03:38;;;;;;;0.40;0.20;;;;;;;18.32;94.67;99956.06;4970286;28;20991;-52
2021/07/29 05:06:05;;;;;;;0.40;0.30;;;;;;;18.66;93.42;99951.19;4968361;28;21211;-52
2021/07/29 05:08:31;;;;;;;0.40;0.20;;;;;;;18.59;93.83;99950.66;4973325;28;20466;-52
2021/07/29 05:11:04;;;;;;;0.40;0.20;;;;;;;18.65;94.01;99946.75;4973141;28;20505;-54
2021/07/29 05:13:31;;;;;;;0.40;0.20;;;;;;;18.56;94.38;99941.94;4973581;28;20442;-54
2021/07/29 05:15:59;;;;;;;0.40;0.27;;;;;;;18.71;93.71;99946.34;4975096;28;20501;-54
2021/07/29 05:18:25;;;;;;;0.40;0.30;;;;;;;18.70;94.03;99936.53;4977122;28;20494;-54
2021/07/29 05:20:52;;;;;;;0.40;0.20;;;;;;;18.70;94.42;99943.75;4977119;28;20505;-54
2021/07/29 05:23:19;;;;;;;0.40;0.20;;;;;;;18.77;93.70;99936.97;4977008;28;20454;-55
2021/07/29 05:25:45;;;;;;;0.50;0.50;;;;;;;18.84;92.96;99943.66;4975782;28;20450;-54
2021/07/29 05:28:12;;;;;;;0.40;0.20;;;;;;;18.85;94.04;99938.19;4977255;28;20619;-54
2021/07/29 05:30:38;;;;;;;0.50;0.30;;;;;;;18.87;93.91;99941.63;4977046;28;20458;-55
2021/07/29 05:33:05;;;;;;;0.50;0.30;;;;;;;18.85;94.84;99943.56;4977184;28;20500;-54
2021/07/29 05:35:32;;;;;;;0.90;0.63;;;;;;;19.08;94.08;99951.91;4976375;28;20429;-54
2021/07/29 05:37:59;;;;;;;0.40;0.20;;;;;;;19.38;93.29;99946.19;4976580;28;20482;-54
2021/07/29 05:40:26;;;;;;;0.40;0.20;;;;;;;20.03;90.13;99951.44;4976817;28;20479;-54
2021/07/29 05:42:52;;;;;;;0.40;0.30;;;;;;;20.32;88.56;99949.28;4977786;28;20446;-54
2021/07/29 05:45:20;;;;;;;0.40;0.20;;;;;;;20.23;88.62;99945.41;4976826;28;20450;-54
2021/07/29 05:47:46;;;;;;;0.40;0.20;;;;;;;21.04;85.96;99949.25;4976907;28;20528;-54
2021/07/29 05:50:13;;;;;;;5.70;1.17;;;;;;;21.35;83.36;99942.31;4975045;28;20509;-53
2021/07/29 05:52:40;;;;;;;0.40;0.20;;;;;;;21.78;81.75;99958.69;4975270;28;20988;-54
2021/07/29 05:55:06;;;;;;;0.50;0.37;;;;;;;21.98;78.22;99960.69;4976635;28;20505;-53
2021/07/29 05:57:33;;;;;;;0.50;0.33;;;;;;;22.28;76.90;99961.88;4973258;28;20470;-54
2021/07/29 06:00:00;;;;;;;0.40;0.20;;;;;;;22.40;75.21;99960.88;4976431;28;20916;-55
2021/07/29 06:02:27;;;;;;;0.40;0.30;;;;;;;22.84;74.61;99968.00;4976935;28;20458;-54
2021/07/29 06:04:55;;;;;;;0.40;0.23;;;;;;;22.72;73.98;99969.88;4968781;28;20533;-54
2021/07/29 06:07:21;;;;;;;0.40;0.20;;;;;;;22.75;74.12;99969.63;4975409;28;20470;-54
2021/07/29 06:09:48;;;;;;;1.47;1.47;;;;;;;22.67;73.84;99977.53;4976817;28;20432;-54
2021/07/29 06:12:15;;;;;;;0.40;0.30;;;;;;;22.92;72.56;99978.22;4977871;28;20946;-53
2021/07/29 06:14:41;;;;;;;0.63;0.63;;;;;;;22.85;72.85;99980.56;4976153;28;20517;-53
2021/07/29 06:17:08;;;;;;;0.40;0.30;;;;;;;23.08;72.09;99989.47;4974941;28;20478;-54
2021/07/29 06:19:39;;;;;;;0.40;0.20;;;;;;;23.18;71.74;99993.13;4975926;28;20494;-54
2021/07/29 06:22:06;;;;;;;0.73;0.73;;;;;;;23.59;72.34;99988.72;4976311;28;20503;-53
2021/07/29 06:24:32;;;;;;;0.50;0.50;;;;;;;23.30;72.15;99992.06;4976341;28;20887;-53
2021/07/29 06:27:01;;;;;;;0.47;0.37;;;;;;;23.09;71.69;99999.34;4975695;28;20482;-53
2021/07/29 06:29:27;;;;;;;0.50;0.30;;;;;;;22.92;72.81;99999.91;4976114;28;20460;-54
2021/07/29 06:31:54;;;;;;;1.13;1.03;;;;;;;22.86;73.16;99995.00;4976070;28;20503;-54
2021/07/29 06:34:20;;;;;;;0.40;0.30;;;;;;;22.66;73.39;99999.34;4974492;28;20429;-53
2021/07/29 06:36:47;;;;;;;0.40;0.20;;;;;;;23.27;71.20;99988.75;4976076;28;20969;-55
2021/07/29 06:39:14;;;;;;;0.40;0.30;;;;;;;22.85;71.83;99990.56;4974373;28;20571;-54
2021/07/29 06:41:41;;;;;;;0.40;0.30;;;;;;;22.73;72.71;99987.84;4975717;28;20880;-54
2021/07/29 06:44:08;;;;;;;0.40;0.20;;;;;;;23.05;72.79;100004.16;4975858;28;20446;-54
2021/07/29 06:46:36;;;;;;;2.10;2.00;;;;;;;22.98;72.15;100002.09;4975467;28;20520;-55
2021/07/29 06:49:04;;;;;;;0.40;0.20;;;;;;;22.70;72.07;100003.53;4975804;28;20421;-54
2021/07/29 06:51:31;;;;;;;0.40;0.30;;;;;;;22.56;72.10;100006.53;4974763;28;20459;-54
2021/07/29 06:53:59;;;;;;;0.40;0.23;;;;;;;23.03;71.60;100003.44;4975709;28;20458;-54
2021/07/29 06:56:26;;;;;;;0.40;0.20;;;;;;;22.83;71.53;100011.53;4972252;28;20513;-54
2021/07/29 06:58:52;;;;;;;0.40;0.20;;;;;;;22.77;72.20;100013.72;4975402;28;21151;-54
2021/07/29 07:01:19;;;;;;;0.40;0.30;;;;;;;22.41;72.82;99997.81;4975147;28;20429;-55
2021/07/29 07:03:47;;;;;;;0.40;0.20;;;;;;;22.75;72.08;100014.81;4971253;28;20963;-54
2021/07/29 07:06:14;;;;;;;0.40;0.30;;;;;;;22.87;72.71;100004.84;4972835;28;20451;-54
2021/07/29 07:08:41;;;;;;;0.50;0.40;;;;;;;22.89;70.96;100009.16;4975360;28;20458;-54
2021/07/29 07:11:14;;;;;;;0.83;0.83;;;;;;;23.15;71.75;100015.06;4975101;28;20460;-55
2021/07/29 07:13:43;;;;;;;0.40;0.20;;;;;;;22.80;71.42;100011.75;4975084;28;20428;-54
2021/07/29 07:16:11;;;;;;;0.40;0.30;;;;;;;22.72;70.17;100013.22;4975134;28;20576;-55
2021/07/29 07:18:39;;;;;;;0.40;0.30;;;;;;;22.66;70.75;100019.19;4974954;28;20440;-54
2021/07/29 07:21:10;;;;;;;0.40;0.20;;;;;;;22.92;69.81;100016.19;4975127;28;20503;-54
2021/07/29 07:23:38;;;;;;;0.40;0.30;;;;;;;22.54;71.52;100012.06;4974922;28;20482;-54
2021/07/29 07:26:12;;;;;;;0.40;0.20;;;;;;;22.73;70.08;100006.81;4975054;28;20429;-53
2021/07/29 07:28:39;;;;;;;0.40;0.30;;;;;;;22.82;69.49;100005.19;4974771;28;20852;-54
2021/07/29 07:31:05;;;;;;;0.40;0.30;;;;;;;23.11;69.39;100004.63;4975191;28;20481;-54
2021/07/29 07:33:32;;;;;;;0.50;0.30;;;;;;;23.23;68.16;99999.00;4974146;28;20484;-54
2021/07/29 07:35:59;;;;;;;0.40;0.20;;;;;;;23.26;67.96;100006.88;4974756;28;20516;-55
2021/07/29 07:38:25;;;;;;;0.40;0.20;;;;;;;23.38;68.17;100004.09;4973971;28;20465;-54
2021/07/29 07:40:52;;;;;;;0.40;0.20;;;;;;;23.28;69.21;100004.03;4973967;28;20476;-54
2021/07/29 07:43:18;;;;;;;0.40;0.20;;;;;;;23.62;67.98;100004.72;4974674;28;20664;-54
2021/07/29 07:45:45;;;;;;;0.40;0.30;;;;;;;23.52;67.08;100003.75;4973542;28;20429;-54
2021/07/29 07:48:12;;;;;;;0.43;0.30;;;;;;;23.30;67.13;100002.94;4974481;28;20470;-54
2021/07/29 07:50:40;;;;;;;0.40;0.20;;;;;;;23.56;65.63;100005.22;4974043;28;20450;-54
2021/07/29 07:53:06;;;;;;;0.40;0.30;;;;;;;23.41;67.33;99995.69;4974309;28;20521;-54
2021/07/29 07:55:36;;;;;;;0.67;0.60;;;;;;;23.47;64.55;100003.31;4974224;28;20509;-54
2021/07/29 07:58:02;;;;;;;0.40;0.20;;;;;;;23.53;66.10;100006.34;4971240;28;20471;-54
2021/07/29 08:00:29;;;;;;;0.40;0.20;;;;;;;23.45;63.92;100002.59;4974095;28;20973;-54
2021/07/29 08:02:55;;;;;;;0.40;0.20;;;;;;;23.12;65.25;100004.47;4974282;28;20450;-54
2021/07/29 08:05:22;;;;;;;0.50;0.30;;;;;;;23.27;64.95;100003.16;4967340;28;20458;-54
2021/07/29 08:07:49;;;;;;;0.40;0.20;;;;;;;23.66;66.32;100000.75;4973706;28;21004;-55
2021/07/29 08:10:16;;;;;;;0.40;0.20;;;;;;;23.80;64.73;99999.53;4974226;28;20429;-54
2021/07/29 08:12:42;;;;;;;0.40;0.20;;;;;;;24.06;64.25;99995.34;4974006;28;20454;-54
2021/07/29 08:15:10;;;;;;;0.40;0.20;;;;;;;24.61;63.01;100003.97;4974048;28;20454;-54
2021/07/29 08:17:36;;;;;;;0.40;0.30;;;;;;;24.24;61.88;100012.72;4974018;28;20965;-54
2021/07/29 08:20:04;;;;;;;0.40;0.20;;;;;;;23.73;62.87;99995.66;4974362;28;20851;-53
2021/07/29 08:22:30;;;;;;;0.70;0.70;;;;;;;23.71;64.36;100001.22;4973589;28;20480;-53
2021/07/29 08:24:58;;;;;;;2.50;2.40;;;;;;;24.17;63.08;100008.84;4974013;28;20545;-53
2021/07/29 08:27:24;;;;;;;0.40;0.30;;;;;;;24.50;61.82;100010.38;4973530;28;20445;-54
2021/07/29 08:29:51;;;;;;;0.40;0.20;;;;;;;24.34;61.54;100003.78;4973684;28;20858;-54
2021/07/29 08:32:18;;;;;;;0.50;0.30;;;;;;;24.15;60.42;100015.41;4973576;28;20532;-55
2021/07/29 08:34:44;;;;;;;0.40;0.30;;;;;;;24.29;60.61;100004.16;4973456;28;20940;-54
2021/07/29 08:37:13;;;;;;;0.40;0.20;;;;;;;24.23;61.37;100016.44;4973290;28;20832;-54
2021/07/29 08:39:39;;;;;;;0.40;0.30;;;;;;;24.43;61.10;100016.53;4973577;28;20472;-54
2021/07/29 08:42:06;;;;;;;0.40;0.20;;;;;;;24.57;59.47;100004.41;4973319;28;20511;-55
2021/07/29 08:44:33;;;;;;;0.40;0.20;;;;;;;24.52;60.82;100002.09;4972449;28;20480;-54
2021/07/29 08:47:01;;;;;;;0.40;0.20;;;;;;;24.55;59.21;99998.25;4973381;28;20506;-53
2021/07/29 08:49:27;;;;;;;0.40;0.30;;;;;;;24.50;58.44;100002.22;4973360;28;20573;-56
2021/07/29 08:51:54;;;;;;;0.97;0.87;;;;;;;24.37;57.37;100001.63;4972901;28;20429;-54
2021/07/29 08:54:22;;;;;;;0.40;0.30;;;;;;;23.97;58.83;100003.44;4973574;28;20429;-54
2021/07/29 08:56:48;;;;;;;0.80;0.67;;;;;;;24.20;58.82;100007.69;4970559;28;20449;-54
2021/07/29 08:59:15;;;;;;;0.40;0.20;;;;;;;24.18;59.14;100015.13;4973338;28;20490;-54
2021/07/29 09:01:48;;;;;;;0.40;0.30;;;;;;;24.31;58.55;100007.63;4973661;28;20481;-53
2021/07/29 09:04:16;;;;;;;0.40;0.30;;;;;;;24.26;59.08;100003.56;4964970;28;20451;-53
2021/07/29 09:07:01;;;;;;;0.40;0.20;;;;;;;24.22;57.19;100022.84;4973487;28;20521;-54
2021/07/29 09:09:42;;;;;;;0.50;0.50;;;;;;;24.32;57.36;100013.91;4973527;28;20425;-54
2021/07/29 09:12:21;;;;;;;0.50;0.40;;;;;;;24.45;57.82;100028.13;4973457;28;20437;-54
2021/07/29 09:14:49;;;;;;;0.40;0.30;;;;;;;24.38;57.13;100021.50;4950417;28;20454;-54
2021/07/29 09:17:17;;;;;;;1.10;1.00;;;;;;;24.48;56.74;100014.25;4973281;28;20485;-54
2021/07/29 09:19:47;;;;;;;0.40;0.30;;;;;;;24.61;57.80;100014.84;4973740;28;20497;-54
2021/07/29 09:22:18;;;;;;;0.40;0.20;;;;;;;24.18;57.79;100013.28;4973540;28;21018;-54
2021/07/29 09:25:06;;;;;;;0.40;0.23;;;;;;;23.82;58.89;100017.38;4973462;28;20887;-54
2021/07/29 09:27:38;;;;;;;0.40;0.30;;;;;;;23.59;59.23;100016.72;4973204;28;20527;-55
2021/07/29 09:30:15;;;;;;;0.40;0.30;;;;;;;23.78;60.54;100018.66;4973160;28;20425;-54
2021/07/29 09:33:05;;;;;;;0.40;0.20;;;;;;;23.82;59.61;100014.69;4972102;28;20450;-54
2021/07/29 09:35:32;;;;;;;0.40;0.20;;;;;;;23.45;60.06;100021.59;4972448;28;20505;-54
2021/07/29 09:38:22;;;;;;;0.50;0.30;;;;;;;23.44;61.07;100028.88;4973020;28;20519;-54
2021/07/29 09:40:49;;;;;;;2.70;0.60;;;;;;;24.24;58.87;100025.44;4972951;28;20494;-54
2021/07/29 09:43:18;;;;;;;0.40;0.30;;;;;;;24.23;57.30;100031.88;4973269;28;20429;-55
2021/07/29 09:45:47;;;;;;;0.40;0.30;;;;;;;24.00;56.63;100025.78;4973088;28;20520;-54
2021/07/29 09:48:14;;;;;;;0.40;0.20;;;;;;;24.22;55.41;100030.16;4973197;28;20820;-53
2021/07/29 09:50:42;;;;;;;0.40;0.23;;;;;;;24.06;56.01;100029.81;4973050;28;20895;-54
2021/07/29 09:53:09;;;;;;;0.40;0.20;;;;;;;24.30;56.03;100038.50;4972968;28;20450;-54
2021/07/29 09:55:36;;;;;;;0.50;0.30;;;;;;;24.15;53.93;100031.72;4972939;28;20450;-54
2021/07/29 09:58:04;;;;;;;0.40;0.20;;;;;;;24.16;54.10;100030.72;4969389;28;20478;-55
2021/07/29 10:00:33;;;;;;;0.50;0.40;;;;;;;24.09;55.53;100033.09;4972647;28;20548;-54
2021/07/29 10:03:02;;;;;;;0.40;0.20;;;;;;;24.08;55.01;100033.25;4975309;28;20428;-54
2021/07/29 10:05:35;;;;;;;4.43;0.47;;;;;;;24.22;54.17;100033.72;4968809;28;20432;-54
2021/07/29 10:08:07;;;;;;;0.40;0.20;;;;;;;23.87;55.03;100023.28;4976321;28;20483;-54
2021/07/29 10:10:33;;;;;;;0.50;0.40;;;;;;;24.19;53.88;100036.72;4976195;28;20796;-56
2021/07/29 10:13:00;;;;;;;0.50;0.40;;;;;;;24.35;54.24;100032.66;4976012;28;20461;-56
2021/07/29 10:15:41;;;;;;;0.40;0.20;;;;;;;24.35;49.92;100030.81;4976228;28;20454;-56
2021/07/29 10:18:10;;;;;;;0.40;0.20;;;;;;;24.33;51.11;100023.78;4952477;28;21030;-56
2021/07/29 10:20:41;;;;;;;3.23;1.57;;;;;;;24.47;51.47;100026.97;4975922;28;20485;-56
2021/07/29 10:23:13;;;;;;;0.40;0.30;;;;;;;24.22;51.00;100035.59;4976185;28;20425;-56
2021/07/29 10:25:52;;;;;;;0.40;0.20;;;;;;;23.88;51.02;100035.00;4975921;28;20912;-56
2021/07/29 10:28:28;;;;;;;0.40;0.30;;;;;;;23.62;51.35;100040.88;4976167;28;20448;-56
2021/07/29 10:30:57;;;;;;;0.40;0.30;;;;;;;23.84;51.30;100041.69;4975840;28;20980;-56
2021/07/29 10:33:24;;;;;;;0.50;0.30;;;;;;;23.66;52.57;100041.44;4974944;28;20424;-56
2021/07/29 10:35:52;;;;;;;0.40;0.20;;;;;;;23.56;53.15;100037.78;4975738;28;20446;-56
2021/07/29 10:38:39;;;;;;;0.40;0.23;;;;;;;24.07;51.59;100042.38;4975843;28;20836;-55
2021/07/29 10:41:09;;;;;;;1.40;1.30;;;;;;;23.83;51.73;100046.25;4975802;28;20548;-56
2021/07/29 10:43:35;;;;;;;0.40;0.20;;;;;;;24.08;52.51;100035.94;4975479;28;20918;-56
2021/07/29 10:46:02;;;;;;;0.40;0.20;;;;;;;24.22;51.67;100039.16;4974521;28;20528;-56
2021/07/29 10:48:44;;;;;;;0.50;0.30;;;;;;;24.67;51.92;100051.47;4975396;28;20451;-56
2021/07/29 10:51:22;;;;;;;0.40;0.20;;;;;;;24.54;49.93;100029.16;4975067;28;20432;-56
2021/07/29 10:53:55;;;;;;;0.50;0.40;;;;;;;24.62;49.65;100038.31;4975675;28;20459;-56
2021/07/29 10:56:26;;;;;;;0.40;0.20;;;;;;;24.57;50.55;100039.75;4972359;28;20441;-56
2021/07/29 10:58:54;;;;;;;0.40;0.30;;;;;;;24.23;51.63;100035.44;4975304;28;20866;-56
2021/07/29 11:01:21;;;;;;;0.50;0.40;;;;;;;24.26;50.07;100041.59;4975319;28;20473;-56
2021/07/29 11:03:59;;;;;;;0.40;0.20;;;;;;;24.47;50.32;100031.56;4971135;28;20459;-56
2021/07/29 11:06:42;;;;;;;0.40;0.20;;;;;;;24.58;48.82;100028.72;4974019;28;20425;-55
2021/07/29 11:09:16;;;;;;;0.40;0.20;;;;;;;24.65;49.67;100031.72;4975249;28;20791;-56
2021/07/29 11:11:44;;;;;;;1.20;0.77;;;;;;;24.48;49.67;100028.69;4975276;28;20483;-56
2021/07/29 11:14:11;;;;;;;0.40;0.20;;;;;;;24.90;47.98;100022.19;4974729;28;21071;-56
2021/07/29 11:16:38;;;;;;;0.40;0.30;;;;;;;24.94;46.18;100021.75;4974946;28;20924;-56
2021/07/29 11:19:06;;;;;;;0.40;0.20;;;;;;;25.05;47.42;100028.94;4975027;28;20809;-56
2021/07/29 11:21:34;;;;;;;0.40;0.30;;;;;;;25.63;47.00;100023.44;4975019;28;20545;-55
2021/07/29 11:24:01;;;;;;;0.50;0.30;;;;;;;25.27;46.15;100025.94;4975214;28;20487;-56
2021/07/29 11:26:41;;;;;;;0.67;0.67;;;;;;;25.49;46.46;100008.41;4975694;28;20483;-56
2021/07/29 11:29:09;;;;;;;0.40;0.30;;;;;;;25.62;44.81;100011.69;4975099;28;20429;-56
2021/07/29 11:31:38;;;;;;;11.33;0.90;;;;;;;25.37;45.34;100026.81;4974915;28;20981;-57
2021/07/29 11:34:06;;;;;;;0.40;0.20;;;;;;;25.06;45.79;100014.34;4974173;28;20521;-56